createdAt,value
2022-10-22T00:00:58.250Z,3.53
2022-10-22T00:03:26.019Z,3.75
2022-10-22T00:05:53.758Z,4.13
2022-10-22T00:08:22.952Z,3.50
2022-10-22T00:10:50.959Z,3.55
2022-10-22T00:13:18.801Z,3.65
2022-10-22T00:15:46.593Z,3.03
2022-10-22T00:18:14.406Z,4.95
2022-10-22T00:20:42.164Z,3.28
2022-10-22T00:23:10.038Z,3.58
2022-10-22T00:25:39.221Z,4.28
2022-10-22T00:28:07.075Z,4.00
2022-10-22T00:30:35.003Z,3.58
2022-10-22T00:33:02.783Z,3.25
2022-10-22T00:35:30.609Z,4.00
2022-10-22T00:37:58.337Z,3.85
2022-10-22T00:40:26.716Z,3.60
2022-10-22T00:42:55.942Z,3.55
2022-10-22T00:45:26.374Z,4.40
2022-10-22T00:47:58.928Z,3.80
2022-10-22T00:50:30.675Z,3.85
2022-10-22T00:52:59.420Z,4.03
2022-10-22T00:55:29.976Z,3.70
2022-10-22T00:58:00.896Z,3.70
2022-10-22T01:00:28.854Z,3.40
2022-10-22T01:02:56.883Z,3.53
2022-10-22T01:05:27.352Z,3.38
2022-10-22T01:07:55.916Z,3.20
2022-10-22T01:10:37.308Z,3.60
2022-10-22T01:13:27.370Z,3.63
2022-10-22T01:16:01.561Z,3.85
2022-10-22T01:18:37.707Z,3.28
2022-10-22T01:21:14.784Z,3.22
2022-10-22T01:24:10.705Z,3.22
2022-10-22T01:26:50.922Z,3.53
2022-10-22T01:29:23.523Z,3.17
2022-10-22T01:31:55.887Z,3.38
2022-10-22T01:34:26.091Z,3.70
2022-10-22T01:36:55.797Z,3.50
2022-10-22T01:39:25.072Z,3.40
2022-10-22T01:41:56.286Z,4.03
2022-10-22T01:44:27.994Z,3.40
2022-10-22T01:47:04.670Z,3.20
2022-10-22T01:49:44.530Z,3.47
2022-10-22T01:52:21.879Z,3.75
2022-10-22T01:54:58.161Z,4.05
2022-10-22T01:57:34.625Z,3.47
2022-10-22T02:00:08.847Z,3.28
2022-10-22T02:02:42.804Z,3.92
2022-10-22T02:05:16.411Z,3.55
2022-10-22T02:07:50.216Z,3.58
2022-10-22T02:10:19.845Z,3.58
2022-10-22T02:12:51.647Z,3.33
2022-10-22T02:15:22.675Z,3.20
2022-10-22T02:17:51.676Z,3.38
2022-10-22T02:20:21.750Z,4.22
2022-10-22T02:22:49.627Z,3.35
2022-10-22T02:25:17.980Z,3.88
2022-10-22T02:27:49.620Z,3.53
2022-10-22T02:30:21.715Z,4.30
2022-10-22T02:32:55.094Z,4.18
2022-10-22T02:35:26.034Z,3.38
2022-10-22T02:37:56.217Z,3.75
2022-10-22T02:40:25.139Z,4.00
2022-10-22T02:42:54.073Z,3.75
2022-10-22T02:45:23.772Z,3.30
2022-10-22T02:47:51.849Z,3.55
2022-10-22T02:50:19.604Z,3.65
2022-10-22T02:52:47.375Z,3.45
2022-10-22T02:55:16.035Z,3.38
2022-10-22T02:57:44.025Z,3.60
2022-10-22T03:00:13.484Z,3.30
2022-10-22T03:02:42.711Z,3.00
2022-10-22T03:05:10.982Z,3.05
2022-10-22T03:07:39.016Z,2.90
2022-10-22T03:10:08.086Z,3.72
2022-10-22T03:12:35.933Z,3.65
2022-10-22T03:15:03.754Z,3.40
2022-10-22T03:17:31.672Z,3.40
2022-10-22T03:20:00.809Z,3.80
2022-10-22T03:22:31.983Z,3.67
2022-10-22T03:25:03.947Z,3.38
2022-10-22T03:27:31.891Z,3.90
2022-10-22T03:30:00.568Z,3.30
2022-10-22T03:32:28.397Z,3.42
2022-10-22T03:34:56.225Z,3.20
2022-10-22T03:37:26.125Z,3.55
2022-10-22T03:39:54.680Z,3.33
2022-10-22T03:42:23.150Z,2.92
2022-10-22T03:44:51.101Z,3.53
2022-10-22T03:47:18.938Z,3.75
2022-10-22T03:49:46.716Z,3.70
2022-10-22T03:52:16.103Z,3.92
2022-10-22T03:54:45.732Z,3.88
2022-10-22T03:57:13.654Z,3.30
2022-10-22T03:59:43.620Z,3.92
2022-10-22T04:02:12.279Z,3.67
2022-10-22T04:04:40.307Z,3.15
2022-10-22T04:07:09.460Z,4.22
2022-10-22T04:09:37.395Z,3.70
2022-10-22T04:12:08.128Z,4.28
2022-10-22T04:14:36.027Z,3.33
2022-10-22T04:17:04.024Z,3.40
2022-10-22T04:19:31.891Z,3.80
2022-10-22T04:21:59.988Z,3.92
2022-10-22T04:24:29.516Z,3.90
2022-10-22T04:26:57.405Z,4.10
2022-10-22T04:29:26.991Z,3.95
2022-10-22T04:31:54.787Z,3.83
2022-10-22T04:34:22.679Z,4.18
2022-10-22T04:36:50.414Z,4.05
2022-10-22T04:39:18.207Z,4.32
2022-10-22T04:41:46.012Z,3.60
2022-10-22T04:44:15.866Z,4.13
2022-10-22T04:46:45.898Z,3.55
2022-10-22T04:49:13.796Z,3.72
2022-10-22T04:51:41.869Z,4.07
2022-10-22T04:54:09.699Z,3.65
2022-10-22T04:56:37.554Z,4.22
2022-10-22T04:59:07.393Z,4.57
2022-10-22T05:01:40.168Z,3.90
2022-10-22T05:04:15.512Z,3.67
2022-10-22T05:06:43.810Z,3.80
2022-10-22T05:09:14.868Z,3.90
2022-10-22T05:11:45.478Z,4.93
2022-10-22T05:14:13.852Z,3.25
2022-10-22T05:16:41.605Z,3.72
2022-10-22T05:19:09.602Z,3.70
2022-10-22T05:21:38.838Z,3.50
2022-10-22T05:24:07.673Z,3.83
2022-10-22T05:26:35.404Z,3.95
2022-10-22T05:29:03.177Z,3.63
2022-10-22T05:31:30.929Z,3.47
2022-10-22T05:33:58.765Z,2.67
2022-10-22T05:36:26.599Z,3.15
2022-10-22T05:38:55.919Z,3.65
2022-10-22T05:41:25.243Z,3.55
2022-10-22T05:43:55.428Z,3.33
2022-10-22T05:46:25.019Z,3.38
2022-10-22T05:48:53.736Z,2.97
2022-10-22T05:51:22.172Z,3.30
2022-10-22T05:53:54.105Z,3.42
2022-10-22T05:56:23.639Z,2.97
2022-10-22T05:58:51.696Z,3.20
2022-10-22T06:01:21.601Z,2.65
2022-10-22T06:03:49.987Z,3.03
2022-10-22T06:06:21.034Z,3.45
2022-10-22T06:08:50.449Z,3.78
2022-10-22T06:11:19.563Z,3.22
2022-10-22T06:13:50.488Z,3.63
2022-10-22T06:16:19.044Z,3.20
2022-10-22T06:18:46.857Z,2.65
2022-10-22T06:21:16.387Z,2.95
2022-10-22T06:23:44.787Z,3.53
2022-10-22T06:26:13.060Z,2.85
2022-10-22T06:28:40.840Z,3.60
2022-10-22T06:31:11.034Z,5.05
2022-10-22T06:33:42.242Z,3.53
2022-10-22T06:36:12.048Z,2.88
2022-10-22T06:38:40.335Z,3.33
2022-10-22T06:41:09.742Z,3.00
2022-10-22T06:43:37.825Z,2.50
2022-10-22T06:46:09.599Z,2.85
2022-10-22T06:48:40.128Z,3.22
2022-10-22T06:51:10.723Z,3.20
2022-10-22T06:53:39.813Z,2.53
2022-10-22T06:56:08.300Z,2.55
2022-10-22T06:58:36.702Z,3.10
2022-10-22T07:01:06.270Z,2.72
2022-10-22T07:03:34.231Z,3.00
2022-10-22T07:06:05.394Z,2.92
2022-10-22T07:08:34.185Z,3.00
2022-10-22T07:11:07.506Z,2.47
2022-10-22T07:13:35.712Z,2.78
2022-10-22T07:16:03.784Z,2.53
2022-10-22T07:18:32.128Z,3.25
2022-10-22T07:21:00.029Z,3.03
2022-10-22T07:23:30.111Z,2.97
2022-10-22T07:25:57.955Z,2.60
2022-10-22T07:28:25.785Z,3.10
2022-10-22T07:30:53.755Z,2.42
2022-10-22T07:33:21.611Z,2.72
2022-10-22T07:35:49.497Z,2.65
2022-10-22T07:38:17.338Z,2.30
2022-10-22T07:40:46.457Z,3.05
2022-10-22T07:43:14.312Z,2.60
2022-10-22T07:45:42.149Z,2.63
2022-10-22T07:48:09.904Z,2.20
2022-10-22T07:50:37.829Z,2.50
2022-10-22T07:53:05.656Z,2.97
2022-10-22T07:55:33.850Z,2.22
2022-10-22T07:58:03.219Z,2.53
2022-10-22T08:00:31.210Z,2.92
2022-10-22T08:02:59.058Z,2.22
2022-10-22T08:05:26.926Z,2.40
2022-10-22T08:07:54.772Z,2.47
2022-10-22T08:10:22.639Z,3.45
2022-10-22T08:12:50.430Z,2.33
2022-10-22T08:15:19.845Z,2.80
2022-10-22T08:17:47.632Z,3.00
2022-10-22T08:20:15.485Z,2.78
2022-10-22T08:22:43.335Z,2.72
2022-10-22T08:25:11.562Z,3.08
2022-10-22T08:27:40.168Z,2.80
2022-10-22T08:30:09.527Z,2.65
2022-10-22T08:32:38.723Z,2.70
2022-10-22T08:35:06.954Z,2.45
2022-10-22T08:37:34.893Z,2.30
2022-10-22T08:40:02.754Z,2.10
2022-10-22T08:43:07.802Z,2.15
2022-10-22T08:45:41.437Z,2.83
2022-10-22T08:48:24.320Z,2.10
2022-10-22T08:50:55.931Z,2.53
2022-10-22T08:53:30.552Z,2.65
2022-10-22T08:55:59.205Z,2.30
2022-10-22T08:58:35.623Z,2.05
2022-10-22T09:01:07.215Z,2.20
2022-10-22T09:03:44.732Z,2.28
2022-10-22T09:06:15.314Z,2.63
2022-10-22T09:08:46.274Z,2.58
2022-10-22T09:11:25.235Z,2.80
2022-10-22T09:13:54.876Z,2.30
2022-10-22T09:16:29.948Z,2.47
2022-10-22T09:19:10.663Z,2.55
2022-10-22T09:21:47.742Z,1.88
2022-10-22T09:24:27.494Z,2.10
2022-10-22T09:26:58.564Z,2.00
2022-10-22T09:29:32.839Z,2.90
2022-10-22T09:32:00.805Z,2.63
2022-10-22T09:34:30.492Z,2.45
2022-10-22T09:37:05.861Z,2.30
2022-10-22T09:39:36.262Z,2.28
2022-10-22T09:42:04.127Z,2.22
2022-10-22T09:44:34.759Z,2.80
2022-10-22T09:47:06.103Z,2.50
2022-10-22T09:49:37.118Z,2.20
2022-10-22T09:52:24.219Z,2.35
2022-10-22T09:55:10.322Z,1.92
2022-10-22T09:57:39.886Z,2.40
2022-10-22T10:00:11.382Z,2.75
2022-10-22T10:02:42.046Z,2.30
2022-10-22T10:05:20.158Z,2.15
2022-10-22T10:07:48.348Z,2.35
2022-10-22T10:10:22.215Z,2.38
2022-10-22T10:12:57.887Z,2.60
2022-10-22T10:15:31.220Z,2.00
2022-10-22T10:18:08.426Z,2.45
2022-10-22T10:20:44.185Z,2.08
2022-10-22T10:23:24.438Z,3.30
2022-10-22T10:25:58.897Z,2.17
2022-10-22T10:28:42.579Z,2.63
2022-10-22T10:31:21.482Z,2.60
2022-10-22T10:33:56.648Z,2.55
2022-10-22T10:36:34.503Z,2.50
2022-10-22T10:39:05.820Z,2.35
2022-10-22T10:41:47.374Z,2.22
2022-10-22T10:44:40.201Z,2.47
2022-10-22T10:47:22.454Z,2.13
2022-10-22T10:49:56.893Z,2.40
2022-10-22T10:52:33.062Z,2.40
2022-10-22T10:55:13.825Z,1.80
2022-10-22T10:57:50.418Z,1.83
2022-10-22T11:00:20.827Z,1.73
2022-10-22T11:03:30.647Z,2.72
2022-10-22T11:06:01.062Z,2.70
2022-10-22T11:08:33.621Z,1.85
2022-10-22T11:11:07.575Z,2.15
2022-10-22T11:13:39.309Z,2.20
2022-10-22T11:16:17.644Z,1.77
2022-10-22T11:18:52.829Z,2.05
2022-10-22T11:21:27.185Z,1.83
2022-10-22T11:24:03.617Z,2.03
2022-10-22T11:26:39.889Z,2.20
2022-10-22T11:29:13.904Z,2.60
2022-10-22T11:31:42.443Z,2.13
2022-10-22T11:34:33.120Z,2.20
2022-10-22T11:37:02.910Z,1.92
2022-10-22T11:39:39.210Z,2.45
2022-10-22T11:42:12.080Z,2.55
2022-10-22T11:45:01.668Z,2.50
2022-10-22T11:47:34.512Z,2.20
2022-10-22T11:50:19.627Z,2.40
2022-10-22T11:52:59.834Z,2.60
2022-10-22T11:55:45.632Z,2.15
2022-10-22T11:58:42.217Z,2.03
2022-10-22T12:01:22.855Z,2.15
2022-10-22T12:03:52.293Z,2.53
2022-10-22T12:06:24.174Z,2.97
2022-10-22T12:09:01.107Z,2.75
2022-10-22T12:11:37.969Z,2.17
2022-10-22T12:14:19.892Z,2.47
2022-10-22T12:16:56.317Z,2.20
2022-10-22T12:19:30.095Z,2.60
2022-10-22T12:22:01.163Z,2.20
2022-10-22T12:24:33.582Z,3.00
2022-10-22T12:27:02.889Z,2.65
2022-10-22T12:29:33.747Z,2.17
2022-10-22T12:32:04.935Z,2.40
2022-10-22T12:34:32.762Z,2.60
2022-10-22T12:37:00.816Z,2.65
2022-10-22T12:39:29.941Z,2.90
2022-10-22T12:41:57.776Z,2.53
2022-10-22T12:44:26.973Z,2.50
2022-10-22T12:46:57.022Z,2.33
2022-10-22T12:49:34.249Z,2.90
2022-10-22T12:52:07.672Z,2.70
2022-10-22T12:54:38.455Z,2.92
2022-10-22T12:57:06.647Z,2.75
2022-10-22T12:59:37.917Z,2.80
2022-10-22T13:02:16.677Z,2.72
2022-10-22T13:05:08.203Z,2.38
2022-10-22T13:07:42.291Z,2.85
2022-10-22T13:10:18.307Z,2.55
2022-10-22T13:12:51.766Z,2.42
2022-10-22T13:15:23.894Z,2.25
2022-10-22T13:17:51.797Z,2.92
2022-10-22T13:20:23.492Z,2.65
2022-10-22T13:22:57.994Z,2.53
2022-10-22T13:25:28.364Z,3.38
2022-10-22T13:27:58.380Z,2.67
2022-10-22T13:30:29.650Z,2.78
2022-10-22T13:33:00.051Z,2.75
2022-10-22T13:35:30.334Z,2.38
2022-10-22T13:37:58.193Z,2.88
2022-10-22T13:40:26.404Z,3.05
2022-10-22T13:42:54.233Z,2.90
2022-10-22T13:45:22.528Z,3.00
2022-10-22T13:47:54.437Z,2.70
2022-10-22T13:50:22.824Z,3.10
2022-10-22T13:52:54.004Z,3.20
2022-10-22T13:55:25.439Z,2.92
2022-10-22T13:57:54.397Z,2.55
2022-10-22T14:00:23.600Z,2.50
2022-10-22T14:02:55.751Z,2.70
2022-10-22T14:05:23.807Z,2.65
2022-10-22T14:07:51.841Z,3.33
2022-10-22T14:10:21.662Z,3.08
2022-10-22T14:12:52.533Z,3.20
2022-10-22T14:15:24.220Z,2.60
2022-10-22T14:17:57.180Z,2.85
2022-10-22T14:20:27.602Z,2.22
2022-10-22T14:22:55.748Z,3.67
2022-10-22T14:25:25.472Z,2.83
2022-10-22T14:27:53.679Z,3.28
2022-10-22T14:30:24.195Z,2.92
2022-10-22T14:32:53.722Z,2.63
2022-10-22T14:35:23.439Z,2.90
2022-10-22T14:37:51.834Z,2.75
2022-10-22T14:40:21.695Z,2.42
2022-10-22T14:42:50.396Z,2.78
2022-10-22T14:45:20.910Z,2.80
2022-10-22T14:47:48.776Z,3.05
2022-10-22T14:50:18.653Z,3.05
2022-10-22T14:52:46.723Z,3.08
2022-10-22T14:55:32.057Z,2.70
2022-10-22T14:57:59.813Z,2.97
2022-10-22T15:00:27.905Z,2.88
2022-10-22T15:02:56.197Z,2.35
2022-10-22T15:05:25.324Z,2.67
2022-10-22T15:07:53.255Z,3.00
2022-10-22T15:10:21.280Z,3.00
2022-10-22T15:12:49.188Z,2.83
2022-10-22T15:15:18.217Z,2.90
2022-10-22T15:17:48.454Z,3.15
2022-10-22T15:20:16.420Z,2.55
2022-10-22T15:22:45.520Z,2.88
2022-10-22T15:25:14.352Z,2.95
2022-10-22T15:27:42.497Z,2.50
2022-10-22T15:30:10.807Z,3.03
2022-10-22T15:32:38.822Z,1.80
2022-10-22T15:35:08.107Z,2.95
2022-10-22T15:37:37.760Z,5.35
2022-10-22T15:40:08.697Z,2.55
2022-10-22T15:42:36.547Z,2.72
2022-10-22T15:45:04.451Z,2.22
2022-10-22T15:47:32.186Z,3.30
2022-10-22T15:49:59.956Z,2.50
2022-10-22T15:52:27.760Z,2.70
2022-10-22T15:54:55.832Z,5.07
2022-10-22T15:57:24.993Z,4.40
2022-10-22T15:59:52.767Z,2.75
2022-10-22T16:02:20.694Z,3.80
2022-10-22T16:04:48.479Z,3.05
2022-10-22T16:07:18.037Z,2.33
2022-10-22T16:09:48.724Z,2.92
2022-10-22T16:12:17.321Z,3.63
2022-10-22T16:14:46.620Z,3.75
2022-10-22T16:17:14.427Z,2.75
2022-10-22T16:19:42.245Z,3.70
2022-10-22T16:22:11.507Z,3.35
2022-10-22T16:24:40.316Z,3.25
2022-10-22T16:27:08.354Z,3.08
2022-10-22T16:29:38.294Z,2.60
2022-10-22T16:32:08.048Z,3.30
2022-10-22T16:34:35.800Z,2.88
2022-10-22T16:37:09.751Z,3.15
2022-10-22T16:39:37.650Z,2.83
2022-10-22T16:42:06.612Z,2.85
2022-10-22T16:44:34.439Z,3.53
2022-10-22T16:47:02.267Z,3.20
2022-10-22T16:49:31.362Z,3.55
2022-10-22T16:51:59.241Z,2.67
2022-10-22T16:54:27.003Z,2.90
2022-10-22T16:56:54.828Z,3.42
2022-10-22T16:59:22.769Z,7.00
2022-10-22T17:01:50.654Z,8.75
2022-10-22T17:04:18.548Z,11.05
2022-10-22T17:06:47.695Z,10.98
2022-10-22T17:09:15.830Z,9.65
2022-10-22T17:11:44.924Z,8.50
2022-10-22T17:14:14.370Z,7.50
2022-10-22T17:16:42.170Z,4.85
2022-10-22T17:19:13.945Z,4.72
2022-10-22T17:21:41.761Z,4.65
2022-10-22T17:24:11.380Z,4.40
2022-10-22T17:26:39.239Z,5.60
2022-10-22T17:29:07.709Z,6.18
2022-10-22T17:31:37.862Z,5.43
2022-10-22T17:34:07.629Z,6.15
2022-10-22T17:36:36.329Z,5.15
2022-10-22T17:39:06.854Z,4.60
2022-10-22T17:41:37.849Z,4.45
2022-10-22T17:44:08.704Z,3.97
2022-10-22T17:46:36.584Z,3.88
2022-10-22T17:49:07.851Z,9.45
2022-10-22T17:51:35.733Z,12.05
2022-10-22T17:54:06.024Z,13.07
2022-10-22T17:56:39.912Z,7.05
2022-10-22T17:59:07.688Z,4.57
2022-10-22T18:01:37.735Z,3.45
2022-10-22T18:04:08.335Z,3.05
2022-10-22T18:06:37.520Z,3.67
2022-10-22T18:09:06.576Z,3.05
2022-10-22T18:11:36.383Z,3.10
2022-10-22T18:14:06.143Z,2.97
2022-10-22T18:16:33.943Z,3.08
2022-10-22T18:19:01.934Z,3.50
2022-10-22T18:21:31.000Z,3.88
2022-10-22T18:24:00.003Z,4.18
2022-10-22T18:26:28.062Z,3.63
2022-10-22T18:28:56.138Z,3.22
2022-10-22T18:31:26.434Z,3.75
2022-10-22T18:33:55.248Z,3.13
2022-10-22T18:36:25.523Z,3.88
2022-10-22T18:38:55.014Z,3.65
2022-10-22T18:41:23.499Z,4.25
2022-10-22T18:43:51.820Z,3.65
2022-10-22T18:46:19.748Z,3.72
2022-10-22T18:48:48.923Z,4.43
2022-10-22T18:51:17.079Z,3.60
2022-10-22T18:53:58.785Z,3.85
2022-10-22T18:56:32.769Z,4.13
2022-10-22T18:59:00.606Z,3.65
2022-10-22T19:01:29.862Z,4.20
2022-10-22T19:03:59.036Z,4.45
2022-10-22T19:06:29.989Z,4.95
2022-10-22T19:09:00.153Z,4.68
2022-10-22T19:11:28.170Z,5.03
2022-10-22T19:13:55.980Z,6.90
2022-10-22T19:16:24.473Z,7.03
2022-10-22T19:18:52.906Z,7.97
2022-10-22T19:21:22.774Z,6.38
2022-10-22T19:23:51.528Z,6.05
2022-10-22T19:26:21.389Z,5.82
2022-10-22T19:28:49.211Z,5.90
2022-10-22T19:31:20.087Z,7.00
2022-10-22T19:33:48.691Z,7.63
2022-10-22T19:36:18.424Z,7.20
2022-10-22T19:38:49.768Z,7.70
2022-10-22T19:41:19.271Z,9.00
2022-10-22T19:43:49.903Z,7.95
2022-10-22T19:46:18.375Z,8.65
2022-10-22T19:51:21.236Z,8.55
2022-10-22T19:53:52.080Z,9.32
2022-10-22T19:56:21.675Z,9.05
2022-10-22T19:58:49.460Z,8.18
2022-10-22T20:01:19.334Z,9.25
2022-10-22T20:03:47.928Z,9.45
2022-10-22T20:06:17.371Z,8.38
2022-10-22T20:08:45.860Z,8.60
2022-10-22T20:11:18.427Z,8.20
2022-10-22T20:13:49.643Z,8.57
2022-10-22T20:16:23.501Z,8.95
2022-10-22T20:18:51.307Z,9.43
2022-10-22T20:21:20.291Z,8.57
2022-10-22T20:23:49.222Z,8.70
2022-10-22T20:26:18.372Z,9.45
2022-10-22T20:28:46.188Z,8.85
2022-10-22T20:31:17.197Z,9.13
2022-10-22T20:33:45.025Z,9.02
2022-10-22T20:36:16.751Z,8.93
2022-10-22T20:38:45.591Z,9.05
2022-10-22T20:41:15.471Z,8.88
2022-10-22T20:43:46.314Z,8.48
2022-10-22T20:46:17.927Z,7.80
2022-10-22T20:48:45.819Z,7.03
2022-10-22T20:51:14.149Z,7.85
2022-10-22T20:53:41.964Z,9.48
2022-10-22T20:56:10.680Z,9.13
2022-10-22T20:58:39.118Z,9.45
2022-10-22T21:01:12.030Z,8.18
2022-10-22T21:03:40.307Z,8.32
2022-10-22T21:06:08.523Z,8.18
2022-10-22T21:08:36.289Z,7.18
2022-10-22T21:11:04.116Z,15.35
2022-10-22T21:13:33.033Z,10.40
2022-10-22T21:16:00.972Z,9.80
2022-10-22T21:18:30.156Z,7.63
2022-10-22T21:20:58.311Z,7.65
2022-10-22T21:23:26.183Z,6.63
2022-10-22T21:25:55.380Z,8.52
2022-10-22T21:28:23.660Z,7.70
2022-10-22T21:30:51.520Z,6.47
2022-10-22T21:33:19.322Z,7.28
2022-10-22T21:35:53.124Z,6.20
2022-10-22T21:38:21.755Z,5.90
2022-10-22T21:40:49.683Z,6.28
2022-10-22T21:43:18.465Z,7.03
2022-10-22T21:45:46.308Z,5.72
2022-10-22T21:48:14.980Z,4.97
2022-10-22T21:50:43.925Z,5.70
2022-10-22T21:53:13.475Z,5.18
2022-10-22T21:55:41.574Z,5.30
2022-10-22T21:58:10.015Z,5.25
2022-10-22T22:00:37.955Z,5.07
2022-10-22T22:03:08.084Z,4.57
2022-10-22T22:05:35.867Z,4.95
2022-10-22T22:08:03.727Z,5.20
2022-10-22T22:10:32.932Z,4.82
2022-10-22T22:13:00.772Z,4.55
2022-10-22T22:15:31.427Z,5.13
2022-10-22T22:17:59.157Z,5.05
2022-10-22T22:20:27.062Z,5.22
2022-10-22T22:22:54.882Z,5.40
2022-10-22T22:25:22.625Z,5.47
2022-10-22T22:27:51.727Z,5.70
2022-10-22T22:30:19.529Z,6.00
2022-10-22T22:32:47.260Z,5.13
2022-10-22T22:35:15.195Z,5.68
2022-10-22T22:37:43.177Z,5.95
2022-10-22T22:40:12.448Z,5.38
2022-10-22T22:42:40.215Z,5.07
2022-10-22T22:45:10.107Z,5.45
2022-10-22T22:47:37.919Z,5.90
2022-10-22T22:50:06.437Z,6.15
2022-10-22T22:52:34.345Z,5.68
2022-10-22T22:55:02.419Z,5.47
2022-10-22T22:57:30.287Z,5.70
2022-10-22T22:59:58.041Z,5.90
2022-10-22T23:02:27.207Z,5.30
2022-10-22T23:04:54.998Z,5.60
2022-10-22T23:07:22.789Z,6.18
2022-10-22T23:09:50.555Z,6.00
2022-10-22T23:12:18.522Z,6.18
2022-10-22T23:14:46.639Z,5.85
2022-10-22T23:17:14.409Z,6.15
2022-10-22T23:19:43.549Z,7.68
2022-10-22T23:22:11.400Z,6.10
2022-10-22T23:24:40.099Z,6.63
2022-10-22T23:27:07.844Z,6.07
2022-10-22T23:29:36.768Z,7.25
2022-10-22T23:32:06.404Z,6.28
2022-10-22T23:34:34.236Z,6.72
2022-10-22T23:37:03.366Z,7.60
2022-10-22T23:39:31.359Z,7.53
2022-10-22T23:41:59.447Z,6.57
2022-10-22T23:44:27.422Z,6.78
2022-10-22T23:46:55.209Z,6.32
2022-10-22T23:49:22.988Z,6.38
2022-10-22T23:51:50.776Z,6.05
2022-10-22T23:54:19.952Z,6.40
2022-10-22T23:56:48.391Z,6.43
2022-10-22T23:59:16.394Z,6.70
